sensor_id;sensor_type;location;lat;lon;timestamp;pressure;altitude;pressure_sealevel;temperature;humidity
84413;BME280;74611;53.106;8.778;2023-12-20T00:01:39;101145.09;;;19.04;50.47
84413;BME280;74611;53.106;8.778;2023-12-20T00:04:04;101143.66;;;19.01;50.56
84413;BME280;74611;53.106;8.778;2023-12-20T00:06:30;101144.50;;;19.02;50.64
84413;BME280;74611;53.106;8.778;2023-12-20T00:08:56;101149.91;;;19.02;50.46
84413;BME280;74611;53.106;8.778;2023-12-20T00:11:23;101137.16;;;19.02;50.30
84413;BME280;74611;53.106;8.778;2023-12-20T00:13:48;101143.44;;;19.03;50.46
84413;BME280;74611;53.106;8.778;2023-12-20T00:16:14;101140.13;;;19.01;50.39
84413;BME280;74611;53.106;8.778;2023-12-20T00:18:39;101135.50;;;19.01;50.34
84413;BME280;74611;53.106;8.778;2023-12-20T00:21:04;101137.16;;;19.02;50.34
84413;BME280;74611;53.106;8.778;2023-12-20T00:23:30;101134.69;;;19.01;50.25
84413;BME280;74611;53.106;8.778;2023-12-20T00:25:55;101126.75;;;18.99;50.36
84413;BME280;74611;53.106;8.778;2023-12-20T00:28:21;101124.88;;;19.00;50.23
84413;BME280;74611;53.106;8.778;2023-12-20T00:30:46;101128.63;;;18.99;50.24
84413;BME280;74611;53.106;8.778;2023-12-20T00:33:12;101136.78;;;18.99;50.28
84413;BME280;74611;53.106;8.778;2023-12-20T00:35:37;101140.34;;;18.99;50.24
84413;BME280;74611;53.106;8.778;2023-12-20T00:38:03;101142.22;;;18.99;50.43
84413;BME280;74611;53.106;8.778;2023-12-20T00:40:30;101135.97;;;18.98;50.28
84413;BME280;74611;53.106;8.778;2023-12-20T00:42:55;101126.16;;;18.97;50.96
84413;BME280;74611;53.106;8.778;2023-12-20T00:45:20;101114.44;;;18.97;50.19
84413;BME280;74611;53.106;8.778;2023-12-20T00:47:46;101109.00;;;18.97;50.33
84413;BME280;74611;53.106;8.778;2023-12-20T00:50:11;101107.38;;;18.96;50.31
84413;BME280;74611;53.106;8.778;2023-12-20T00:52:37;101106.28;;;18.97;50.44
84413;BME280;74611;53.106;8.778;2023-12-20T00:55:03;101109.00;;;18.97;50.35
84413;BME280;74611;53.106;8.778;2023-12-20T00:57:29;101117.16;;;18.97;50.45
84413;BME280;74611;53.106;8.778;2023-12-20T00:59:54;101117.41;;;18.95;50.41
84413;BME280;74611;53.106;8.778;2023-12-20T01:02:19;101117.41;;;18.95;50.38
84413;BME280;74611;53.106;8.778;2023-12-20T01:04:45;101104.06;;;18.94;50.26
84413;BME280;74611;53.106;8.778;2023-12-20T01:07:10;101101.09;;;18.95;50.38
84413;BME280;74611;53.106;8.778;2023-12-20T01:09:36;101095.66;;;18.95;50.25
84413;BME280;74611;53.106;8.778;2023-12-20T01:12:01;101096.75;;;18.94;50.38
84413;BME280;74611;53.106;8.778;2023-12-20T01:14:26;101089.66;;;18.93;50.39
84413;BME280;74611;53.106;8.778;2023-12-20T01:16:52;101105.34;;;18.91;50.37
84413;BME280;74611;53.106;8.778;2023-12-20T01:19:17;101108.66;;;18.93;50.42
84413;BME280;74611;53.106;8.778;2023-12-20T01:21:43;101115.97;;;18.93;50.43
84413;BME280;74611;53.106;8.778;2023-12-20T01:24:08;101111.38;;;18.93;50.29
84413;BME280;74611;53.106;8.778;2023-12-20T01:26:34;101098.84;;;18.92;50.31
84413;BME280;74611;53.106;8.778;2023-12-20T01:28:59;101095.31;;;18.92;50.18
84413;BME280;74611;53.106;8.778;2023-12-20T01:31:25;101095.31;;;18.92;50.11
84413;BME280;74611;53.106;8.778;2023-12-20T01:33:52;101083.63;;;18.91;50.15
84413;BME280;74611;53.106;8.778;2023-12-20T01:36:17;101083.63;;;18.91;50.19
84413;BME280;74611;53.106;8.778;2023-12-20T01:38:43;101084.66;;;18.90;50.26
84413;BME280;74611;53.106;8.778;2023-12-20T01:41:08;101088.47;;;18.89;50.20
84413;BME280;74611;53.106;8.778;2023-12-20T01:43:34;101091.19;;;18.89;50.22
84413;BME280;74611;53.106;8.778;2023-12-20T01:45:59;101084.91;;;18.89;50.21
84413;BME280;74611;53.106;8.778;2023-12-20T01:48:26;101077.59;;;18.89;50.42
84413;BME280;74611;53.106;8.778;2023-12-20T01:50:53;101065.88;;;18.89;50.35
84413;BME280;74611;53.106;8.778;2023-12-20T01:53:21;101067.75;;;18.88;50.40
84413;BME280;74611;53.106;8.778;2023-12-20T01:55:50;101066.13;;;18.87;50.49
84413;BME280;74611;53.106;8.778;2023-12-20T01:58:17;101075.13;;;18.88;50.33
84413;BME280;74611;53.106;8.778;2023-12-20T02:00:44;101069.69;;;18.88;50.33
84413;BME280;74611;53.106;8.778;2023-12-20T02:03:09;101069.69;;;18.88;50.28
84413;BME280;74611;53.106;8.778;2023-12-20T02:05:35;101065.28;;;18.87;50.20
84413;BME280;74611;53.106;8.778;2023-12-20T02:08:01;101079.72;;;18.87;50.20
84413;BME280;74611;53.106;8.778;2023-12-20T02:10:27;101068.00;;;18.87;50.26
84413;BME280;74611;53.106;8.778;2023-12-20T02:12:54;101064.44;;;18.86;50.22
84413;BME280;74611;53.106;8.778;2023-12-20T02:15:20;101059.03;;;18.86;50.22
84413;BME280;74611;53.106;8.778;2023-12-20T02:17:47;101052.78;;;18.86;50.21
84413;BME280;74611;53.106;8.778;2023-12-20T02:20:12;101046.50;;;18.85;50.18
84413;BME280;74611;53.106;8.778;2023-12-20T02:22:38;101055.50;;;18.86;50.17
84413;BME280;74611;53.106;8.778;2023-12-20T02:25:03;101048.41;;;18.85;50.17
84413;BME280;74611;53.106;8.778;2023-12-20T02:27:29;101046.72;;;18.83;50.26
84413;BME280;74611;53.106;8.778;2023-12-20T02:29:55;101044.84;;;18.84;50.07
84413;BME280;74611;53.106;8.778;2023-12-20T02:32:22;101046.72;;;18.83;50.20
84413;BME280;74611;53.106;8.778;2023-12-20T02:34:51;101040.50;;;18.83;50.23
84413;BME280;74611;53.106;8.778;2023-12-20T02:37:16;101034.22;;;18.83;50.31
84413;BME280;74611;53.106;8.778;2023-12-20T02:39:42;101032.34;;;18.83;50.53
84413;BME280;74611;53.106;8.778;2023-12-20T02:42:07;101029.84;;;18.81;50.22
84413;BME280;74611;53.106;8.778;2023-12-20T02:44:32;101028.78;;;18.83;50.42
84413;BME280;74611;53.106;8.778;2023-12-20T02:46:58;101026.06;;;18.83;50.27
84413;BME280;74611;53.106;8.778;2023-12-20T02:49:23;101018.16;;;18.81;50.41
84413;BME280;74611;53.106;8.778;2023-12-20T02:51:48;101024.19;;;18.83;50.21
84413;BME280;74611;53.106;8.778;2023-12-20T02:54:14;101017.06;;;18.82;50.17
84413;BME280;74611;53.106;8.778;2023-12-20T02:56:40;101010.81;;;18.81;50.17
84413;BME280;74611;53.106;8.778;2023-12-20T02:59:05;101024.41;;;18.81;50.16
84413;BME280;74611;53.106;8.778;2023-12-20T03:01:31;101020.88;;;18.81;50.16
84413;BME280;74611;53.106;8.778;2023-12-20T03:03:57;101001.84;;;18.81;50.36
84413;BME280;74611;53.106;8.778;2023-12-20T03:06:22;101003.75;;;18.80;50.29
84413;BME280;74611;53.106;8.778;2023-12-20T03:08:48;101005.38;;;18.81;50.10
84413;BME280;74611;53.106;8.778;2023-12-20T03:11:13;101002.06;;;18.79;50.23
84413;BME280;74611;53.106;8.778;2023-12-20T03:13:38;100998.31;;;18.80;50.19
84413;BME280;74611;53.106;8.778;2023-12-20T03:16:11;100993.91;;;18.79;50.19
84413;BME280;74611;53.106;8.778;2023-12-20T03:18:36;101001.28;;;18.79;49.73
84413;BME280;74611;53.106;8.778;2023-12-20T03:21:02;100999.34;;;18.79;49.83
84413;BME280;74611;53.106;8.778;2023-12-20T03:23:29;100998.56;;;18.79;50.38
84413;BME280;74611;53.106;8.778;2023-12-20T03:25:56;101002.31;;;18.78;50.12
84413;BME280;74611;53.106;8.778;2023-12-20T03:28:21;100999.59;;;18.78;49.98
84413;BME280;74611;53.106;8.778;2023-12-20T03:30:48;100999.59;;;18.78;50.09
84413;BME280;74611;53.106;8.778;2023-12-20T03:33:13;100991.69;;;18.76;50.10
84413;BME280;74611;53.106;8.778;2023-12-20T03:35:39;100993.31;;;18.77;50.10
84413;BME280;74611;53.106;8.778;2023-12-20T03:38:04;100993.56;;;18.76;50.20
84413;BME280;74611;53.106;8.778;2023-12-20T03:40:30;100995.22;;;18.77;50.29
84413;BME280;74611;53.106;8.778;2023-12-20T03:42:55;100980.81;;;18.76;50.23
84413;BME280;74611;53.106;8.778;2023-12-20T03:45:20;100979.75;;;18.77;50.18
84413;BME280;74611;53.106;8.778;2023-12-20T03:47:46;100977.28;;;18.76;50.05
84413;BME280;74611;53.106;8.778;2023-12-20T03:50:12;100975.41;;;18.76;50.02
84413;BME280;74611;53.106;8.778;2023-12-20T03:52:37;100980.00;;;18.76;50.20
84413;BME280;74611;53.106;8.778;2023-12-20T03:55:03;100979.16;;;18.75;50.02
84413;BME280;74611;53.106;8.778;2023-12-20T03:57:28;100969.97;;;18.76;49.92
84413;BME280;74611;53.106;8.778;2023-12-20T03:59:53;100958.50;;;18.74;49.97
84413;BME280;74611;53.106;8.778;2023-12-20T04:02:19;100959.31;;;18.75;50.22
84413;BME280;74611;53.106;8.778;2023-12-20T04:04:44;100954.72;;;18.75;50.17
84413;BME280;74611;53.106;8.778;2023-12-20T04:07:10;100963.94;;;18.74;49.99
84413;BME280;74611;53.106;8.778;2023-12-20T04:09:35;100953.06;;;18.74;50.04
84413;BME280;74611;53.106;8.778;2023-12-20T04:12:00;100948.69;;;18.73;50.03
84413;BME280;74611;53.106;8.778;2023-12-20T04:14:26;100954.94;;;18.74;50.21
84413;BME280;74611;53.106;8.778;2023-12-20T04:16:52;100946.81;;;18.74;49.97
84413;BME280;74611;53.106;8.778;2023-12-20T04:19:17;100945.97;;;18.73;50.00
84413;BME280;74611;53.106;8.778;2023-12-20T04:21:43;100952.47;;;18.72;50.13
84413;BME280;74611;53.106;8.778;2023-12-20T04:24:08;100944.34;;;18.72;50.05
84413;BME280;74611;53.106;8.778;2023-12-20T04:26:34;100950.81;;;18.71;50.06
84413;BME280;74611;53.106;8.778;2023-12-20T04:28:59;100945.38;;;18.71;50.08
84413;BME280;74611;53.106;8.778;2023-12-20T04:31:25;100945.13;;;18.73;50.26
84413;BME280;74611;53.106;8.778;2023-12-20T04:33:50;100942.66;;;18.71;50.18
84413;BME280;74611;53.106;8.778;2023-12-20T04:36:15;100942.41;;;18.73;49.85
84413;BME280;74611;53.106;8.778;2023-12-20T04:38:41;100944.34;;;18.72;50.08
84413;BME280;74611;53.106;8.778;2023-12-20T04:41:06;100932.13;;;18.75;50.04
84413;BME280;74611;53.106;8.778;2023-12-20T04:43:32;100938.53;;;18.80;49.62
84413;BME280;74611;53.106;8.778;2023-12-20T04:45:57;100938.66;;;18.86;49.61
84413;BME280;74611;53.106;8.778;2023-12-20T04:48:23;100939.00;;;18.89;49.49
84413;BME280;74611;53.106;8.778;2023-12-20T04:50:48;100945.28;;;18.90;49.55
84413;BME280;74611;53.106;8.778;2023-12-20T04:53:13;100945.88;;;18.92;49.52
84413;BME280;74611;53.106;8.778;2023-12-20T04:55:39;100942.31;;;18.91;49.61
84413;BME280;74611;53.106;8.778;2023-12-20T04:58:04;100940.44;;;18.92;49.21
84413;BME280;74611;53.106;8.778;2023-12-20T05:00:30;100935.00;;;18.92;49.40
84413;BME280;74611;53.106;8.778;2023-12-20T05:02:55;100933.31;;;18.91;49.40
84413;BME280;74611;53.106;8.778;2023-12-20T05:05:21;100919.75;;;18.91;49.28
84413;BME280;74611;53.106;8.778;2023-12-20T05:07:46;100919.75;;;18.91;49.26
84413;BME280;74611;53.106;8.778;2023-12-20T05:10:11;100898.25;;;18.89;49.33
84413;BME280;74611;53.106;8.778;2023-12-20T05:12:37;100917.28;;;18.89;49.42
84413;BME280;74611;53.106;8.778;2023-12-20T05:15:04;100905.31;;;18.90;49.49
84413;BME280;74611;53.106;8.778;2023-12-20T05:17:29;100916.44;;;18.89;49.31
84413;BME280;74611;53.106;8.778;2023-12-20T05:19:55;100923.75;;;18.88;49.32
84413;BME280;74611;53.106;8.778;2023-12-20T05:22:20;100924.84;;;18.87;49.24
84413;BME280;74611;53.106;8.778;2023-12-20T05:24:46;100920.22;;;18.88;49.25
84413;BME280;74611;53.106;8.778;2023-12-20T05:27:11;100926.25;;;18.90;49.21
84413;BME280;74611;53.106;8.778;2023-12-20T05:29:37;100916.78;;;18.92;49.32
84413;BME280;74611;53.106;8.778;2023-12-20T05:32:02;100915.47;;;18.95;49.28
84413;BME280;74611;53.106;8.778;2023-12-20T05:34:30;100911.00;;;19.00;48.76
84413;BME280;74611;53.106;8.778;2023-12-20T05:36:55;100910.75;;;19.02;49.03
84413;BME280;74611;53.106;8.778;2023-12-20T05:39:21;100910.50;;;19.03;48.87
84413;BME280;74611;53.106;8.778;2023-12-20T05:41:47;100910.75;;;19.02;49.02
84413;BME280;74611;53.106;8.778;2023-12-20T05:44:13;100918.06;;;19.01;49.05
84413;BME280;74611;53.106;8.778;2023-12-20T05:46:38;100908.50;;;18.99;49.22
84413;BME280;74611;53.106;8.778;2023-12-20T05:49:04;100913.94;;;18.99;49.12
84413;BME280;74611;53.106;8.778;2023-12-20T05:51:30;100922.91;;;18.99;49.01
84413;BME280;74611;53.106;8.778;2023-12-20T05:53:55;100919.63;;;18.97;49.00
84413;BME280;74611;53.106;8.778;2023-12-20T05:56:21;100924.22;;;18.97;49.06
84413;BME280;74611;53.106;8.778;2023-12-20T05:58:46;100900.25;;;18.94;49.16
84413;BME280;74611;53.106;8.778;2023-12-20T06:01:11;100901.09;;;18.94;49.29
84413;BME280;74611;53.106;8.778;2023-12-20T06:03:37;100898.59;;;18.93;49.08
84413;BME280;74611;53.106;8.778;2023-12-20T06:06:06;100888.81;;;18.92;49.12
84413;BME280;74611;53.106;8.778;2023-12-20T06:08:32;100891.72;;;18.90;49.06
84413;BME280;74611;53.106;8.778;2023-12-20T06:10:58;100885.50;;;18.90;49.12
84413;BME280;74611;53.106;8.778;2023-12-20T06:13:23;100884.66;;;18.89;49.09
84413;BME280;74611;53.106;8.778;2023-12-20T06:15:48;100894.69;;;18.89;49.12
84413;BME280;74611;53.106;8.778;2023-12-20T06:18:14;100891.16;;;18.88;49.12
84413;BME280;74611;53.106;8.778;2023-12-20T06:20:39;100894.94;;;18.87;49.09
84413;BME280;74611;53.106;8.778;2023-12-20T06:23:04;100886.78;;;18.87;49.38
84413;BME280;74611;53.106;8.778;2023-12-20T06:25:30;100887.13;;;18.91;49.09
84413;BME280;74611;53.106;8.778;2023-12-20T06:27:55;100886.88;;;18.92;49.06
84413;BME280;74611;53.106;8.778;2023-12-20T06:30:21;100873.66;;;18.96;49.05
84413;BME280;74611;53.106;8.778;2023-12-20T06:32:46;100884.88;;;18.99;48.91
84413;BME280;74611;53.106;8.778;2023-12-20T06:35:12;100878.41;;;19.00;49.08
84413;BME280;74611;53.106;8.778;2023-12-20T06:37:37;100875.88;;;18.99;48.90
84413;BME280;74611;53.106;8.778;2023-12-20T06:40:03;100871.06;;;19.01;48.99
84413;BME280;74611;53.106;8.778;2023-12-20T06:42:29;100865.63;;;19.01;48.94
84413;BME280;74611;53.106;8.778;2023-12-20T06:44:54;100838.69;;;18.99;48.90
84413;BME280;74611;53.106;8.778;2023-12-20T06:47:19;100859.59;;;18.99;49.01
84413;BME280;74611;53.106;8.778;2023-12-20T06:49:45;100847.09;;;18.98;49.05
84413;BME280;74611;53.106;8.778;2023-12-20T06:52:10;100848.13;;;18.97;49.03
84413;BME280;74611;53.106;8.778;2023-12-20T06:54:35;100851.94;;;18.96;49.05
84413;BME280;74611;53.106;8.778;2023-12-20T06:57:01;100841.06;;;18.96;49.07
84413;BME280;74611;53.106;8.778;2023-12-20T06:59:28;100844.03;;;18.94;49.18
84413;BME280;74611;53.106;8.778;2023-12-20T07:01:54;100839.91;;;18.92;49.19
84413;BME280;74611;53.106;8.778;2023-12-20T07:04:19;100839.06;;;18.91;49.19
84413;BME280;74611;53.106;8.778;2023-12-20T07:06:47;100850.97;;;18.90;49.02
84413;BME280;74611;53.106;8.778;2023-12-20T07:09:13;100850.19;;;18.90;49.08
84413;BME280;74611;53.106;8.778;2023-12-20T07:11:38;100843.06;;;18.89;49.23
84413;BME280;74611;53.106;8.778;2023-12-20T07:14:04;100836.00;;;18.88;49.14
84413;BME280;74611;53.106;8.778;2023-12-20T07:16:29;100833.28;;;18.88;48.94
84413;BME280;74611;53.106;8.778;2023-12-20T07:18:55;100843.91;;;18.89;49.04
84413;BME280;74611;53.106;8.778;2023-12-20T07:21:21;100822.75;;;18.91;48.95
84413;BME280;74611;53.106;8.778;2023-12-20T07:23:46;100826.88;;;18.94;49.00
84413;BME280;74611;53.106;8.778;2023-12-20T07:26:12;100837.03;;;18.98;48.79
84413;BME280;74611;53.106;8.778;2023-12-20T07:28:37;100831.09;;;19.01;48.94
84413;BME280;74611;53.106;8.778;2023-12-20T07:31:03;100840.69;;;19.04;48.86
84413;BME280;74611;53.106;8.778;2023-12-20T07:33:28;100824.03;;;19.00;48.79
84413;BME280;74611;53.106;8.778;2023-12-20T07:35:54;100843.06;;;19.00;48.78
84413;BME280;74611;53.106;8.778;2023-12-20T07:38:19;100837.84;;;18.99;48.77
84413;BME280;74611;53.106;8.778;2023-12-20T07:40:44;100831.59;;;18.98;48.88
84413;BME280;74611;53.106;8.778;2023-12-20T07:43:10;100831.03;;;18.96;48.90
84413;BME280;74611;53.106;8.778;2023-12-20T07:45:35;100823.94;;;18.95;49.00
84413;BME280;74611;53.106;8.778;2023-12-20T07:48:01;100823.34;;;18.93;48.98
84413;BME280;74611;53.106;8.778;2023-12-20T07:50:26;100826.06;;;18.93;48.84
84413;BME280;74611;53.106;8.778;2023-12-20T07:52:52;100830.66;;;18.93;48.87
84413;BME280;74611;53.106;8.778;2023-12-20T07:55:18;100823.59;;;18.92;49.03
84413;BME280;74611;53.106;8.778;2023-12-20T07:57:44;100825.72;;;18.90;49.03
84413;BME280;74611;53.106;8.778;2023-12-20T08:00:11;100815.06;;;18.88;49.08
84413;BME280;74611;53.106;8.778;2023-12-20T08:02:37;100806.13;;;18.88;49.01
84413;BME280;74611;53.106;8.778;2023-12-20T08:05:03;100809.88;;;18.87;49.00
84413;BME280;74611;53.106;8.778;2023-12-20T08:07:28;100808.84;;;18.88;49.20
84413;BME280;74611;53.106;8.778;2023-12-20T08:09:54;100805.88;;;18.89;48.94
84413;BME280;74611;53.106;8.778;2023-12-20T08:12:21;100797.47;;;18.91;48.75
84413;BME280;74611;53.106;8.778;2023-12-20T08:14:47;100790.72;;;18.93;49.16
84413;BME280;74611;53.106;8.778;2023-12-20T08:17:12;100806.56;;;18.96;48.87
84413;BME280;74611;53.106;8.778;2023-12-20T08:19:37;100797.09;;;18.99;48.93
84413;BME280;74611;53.106;8.778;2023-12-20T08:22:03;100807.72;;;19.00;48.82
84413;BME280;74611;53.106;8.778;2023-12-20T08:24:29;100783.28;;;19.00;48.75
84413;BME280;74611;53.106;8.778;2023-12-20T08:26:55;100786.00;;;19.00;48.85
84413;BME280;74611;53.106;8.778;2023-12-20T08:29:20;100782.44;;;19.00;48.79
84413;BME280;74611;53.106;8.778;2023-12-20T08:31:46;100777.00;;;19.00;48.81
84413;BME280;74611;53.106;8.778;2023-12-20T08:34:11;100780.78;;;18.99;48.84
84413;BME280;74611;53.106;8.778;2023-12-20T08:36:39;100784.84;;;18.96;49.00
84413;BME280;74611;53.106;8.778;2023-12-20T08:39:04;100768.53;;;18.96;48.86
84413;BME280;74611;53.106;8.778;2023-12-20T08:41:32;100769.56;;;18.95;48.84
84413;BME280;74611;53.106;8.778;2023-12-20T08:43:58;100767.94;;;18.94;48.94
84413;BME280;74611;53.106;8.778;2023-12-20T08:46:23;100757.28;;;18.93;48.90
84413;BME280;74611;53.106;8.778;2023-12-20T08:48:48;100755.66;;;18.92;48.83
84413;BME280;74611;53.106;8.778;2023-12-20T08:51:14;100746.69;;;18.91;48.75
84413;BME280;74611;53.106;8.778;2023-12-20T08:53:39;100754.00;;;18.91;48.94
84413;BME280;74611;53.106;8.778;2023-12-20T08:56:05;100749.06;;;18.88;48.83
84413;BME280;74611;53.106;8.778;2023-12-20T08:58:30;100759.94;;;18.88;48.93
84413;BME280;74611;53.106;8.778;2023-12-20T09:00:56;100748.47;;;18.86;49.01
84413;BME280;74611;53.106;8.778;2023-12-20T09:03:22;100752.25;;;18.85;48.98
84413;BME280;74611;53.106;8.778;2023-12-20T09:05:48;100745.97;;;18.84;49.09
84413;BME280;74611;53.106;8.778;2023-12-20T09:08:13;100749.53;;;18.85;49.06
84413;BME280;74611;53.106;8.778;2023-12-20T09:10:38;100750.13;;;18.87;48.89
84413;BME280;74611;53.106;8.778;2023-12-20T09:13:04;100736.84;;;18.90;48.91
84413;BME280;74611;53.106;8.778;2023-12-20T09:15:29;100746.22;;;18.94;48.81
84413;BME280;74611;53.106;8.778;2023-12-20T09:17:55;100742.16;;;18.97;48.77
84413;BME280;74611;53.106;8.778;2023-12-20T09:20:21;100741.94;;;18.98;48.67
84413;BME280;74611;53.106;8.778;2023-12-20T09:22:48;100749.00;;;18.99;48.81
84413;BME280;74611;53.106;8.778;2023-12-20T09:25:14;100755.53;;;18.98;48.74
84413;BME280;74611;53.106;8.778;2023-12-20T09:27:41;100753.03;;;18.97;48.71
84413;BME280;74611;53.106;8.778;2023-12-20T09:30:06;100749.50;;;18.96;48.85
84413;BME280;74611;53.106;8.778;2023-12-20T09:32:32;100756.00;;;18.95;48.89
84413;BME280;74611;53.106;8.778;2023-12-20T09:34:57;100750.22;;;18.92;48.83
84413;BME280;74611;53.106;8.778;2023-12-20T09:37:25;100752.94;;;18.92;48.93
84413;BME280;74611;53.106;8.778;2023-12-20T09:39:51;100753.16;;;18.90;48.95
84413;BME280;74611;53.106;8.778;2023-12-20T09:42:25;100774.09;;;18.90;48.96
84413;BME280;74611;53.106;8.778;2023-12-20T09:44:55;100839.53;;;18.88;49.15
84413;BME280;74611;53.106;8.778;2023-12-20T09:47:23;100823.47;;;18.87;48.93
84413;BME280;74611;53.106;8.778;2023-12-20T09:49:50;100820.75;;;18.87;48.99
84413;BME280;74611;53.106;8.778;2023-12-20T09:52:15;100830.00;;;18.86;49.08
84413;BME280;74611;53.106;8.778;2023-12-20T09:54:43;100819.34;;;18.84;49.09
84413;BME280;74611;53.106;8.778;2023-12-20T09:57:09;100820.16;;;18.85;49.00
84413;BME280;74611;53.106;8.778;2023-12-20T09:59:35;100816.16;;;18.87;49.03
84413;BME280;74611;53.106;8.778;2023-12-20T10:02:01;100817.00;;;18.88;49.01
84413;BME280;74611;53.106;8.778;2023-12-20T10:04:31;100813.78;;;18.91;49.09
84413;BME280;74611;53.106;8.778;2023-12-20T10:06:57;100810.59;;;18.94;48.87
84413;BME280;74611;53.106;8.778;2023-12-20T10:09:28;100809.88;;;18.98;48.74
84413;BME280;74611;53.106;8.778;2023-12-20T10:11:56;100817.19;;;18.98;48.83
84413;BME280;74611;53.106;8.778;2023-12-20T10:14:23;100816.09;;;18.99;48.82
84413;BME280;74611;53.106;8.778;2023-12-20T10:16:49;100805.22;;;18.99;48.73
84413;BME280;74611;53.106;8.778;2023-12-20T10:19:16;100797.34;;;18.97;48.76
84413;BME280;74611;53.106;8.778;2023-12-20T10:21:42;100803.03;;;18.96;48.89
84413;BME280;74611;53.106;8.778;2023-12-20T10:24:16;100812.00;;;18.96;48.92
84413;BME280;74611;53.106;8.778;2023-12-20T10:26:42;100816.59;;;18.96;48.74
84413;BME280;74611;53.106;8.778;2023-12-20T10:29:07;100817.91;;;18.93;48.93
84413;BME280;74611;53.106;8.778;2023-12-20T10:31:34;100816.03;;;18.94;48.95
84413;BME280;74611;53.106;8.778;2023-12-20T10:34:02;100826.53;;;18.90;48.73
84413;BME280;74611;53.106;8.778;2023-12-20T10:36:29;100819.19;;;18.91;49.08
84413;BME280;74611;53.106;8.778;2023-12-20T10:38:56;100818.38;;;18.90;48.95
84413;BME280;74611;53.106;8.778;2023-12-20T10:41:28;100822.16;;;18.89;49.01
84413;BME280;74611;53.106;8.778;2023-12-20T10:44:04;100822.41;;;18.88;49.06
84413;BME280;74611;53.106;8.778;2023-12-20T10:46:33;100831.38;;;18.88;49.00
84413;BME280;74611;53.106;8.778;2023-12-20T10:48:59;100828.06;;;18.86;48.96
84413;BME280;74611;53.106;8.778;2023-12-20T10:51:27;100822.63;;;18.86;48.90
84413;BME280;74611;53.106;8.778;2023-12-20T10:53:55;100812.03;;;18.85;48.96
84413;BME280;74611;53.106;8.778;2023-12-20T10:56:20;100798.44;;;18.85;48.95
84413;BME280;74611;53.106;8.778;2023-12-20T10:58:47;100800.69;;;18.88;48.91
84413;BME280;74611;53.106;8.778;2023-12-20T11:01:14;100788.47;;;18.90;48.85
84413;BME280;74611;53.106;8.778;2023-12-20T11:03:53;100780.69;;;18.94;48.73
84413;BME280;74611;53.106;8.778;2023-12-20T11:11:55;100811.50;;;18.99;48.68
84413;BME280;74611;53.106;8.778;2023-12-20T11:14:30;100810.66;;;18.99;48.59
84413;BME280;74611;53.106;8.778;2023-12-20T11:17:11;100804.44;;;18.98;48.75
84413;BME280;74611;53.106;8.778;2023-12-20T11:22:29;100794.03;;;18.95;48.72
84413;BME280;74611;53.106;8.778;2023-12-20T11:25:00;100790.47;;;18.95;48.74
84413;BME280;74611;53.106;8.778;2023-12-20T11:27:27;100783.63;;;18.92;48.78
84413;BME280;74611;53.106;8.778;2023-12-20T11:29:55;100783.63;;;18.92;48.92
84413;BME280;74611;53.106;8.778;2023-12-20T11:34:51;100784.97;;;18.90;48.76
84413;BME280;74611;53.106;8.778;2023-12-20T11:37:16;100780.59;;;18.89;48.78
84413;BME280;74611;53.106;8.778;2023-12-20T11:39:44;100776.22;;;18.88;49.11
84413;BME280;74611;53.106;8.778;2023-12-20T11:42:10;100771.84;;;18.87;48.99
84413;BME280;74611;53.106;8.778;2023-12-20T11:44:36;100773.72;;;18.86;48.97
84413;BME280;74611;53.106;8.778;2023-12-20T11:47:02;100778.38;;;18.86;48.83
84413;BME280;74611;53.106;8.778;2023-12-20T11:49:27;100782.13;;;18.85;48.87
84413;BME280;74611;53.106;8.778;2023-12-20T11:51:56;100783.19;;;18.83;48.89
84413;BME280;74611;53.106;8.778;2023-12-20T11:54:21;100794.31;;;18.82;49.09
84413;BME280;74611;53.106;8.778;2023-12-20T11:56:47;100785.09;;;18.83;49.00
84413;BME280;74611;53.106;8.778;2023-12-20T11:59:13;100790.03;;;18.86;48.77
84413;BME280;74611;53.106;8.778;2023-12-20T12:01:38;100787.69;;;18.90;48.73
84413;BME280;74611;53.106;8.778;2023-12-20T12:04:04;100793.13;;;18.90;48.77
84413;BME280;74611;53.106;8.778;2023-12-20T12:06:30;100794.88;;;18.96;48.67
84413;BME280;74611;53.106;8.778;2023-12-20T12:08:55;100788.72;;;19.00;48.67
84413;BME280;74611;53.106;8.778;2023-12-20T12:11:21;100797.44;;;19.02;48.49
84413;BME280;74611;53.106;8.778;2023-12-20T12:13:47;100792.00;;;19.02;48.58
84413;BME280;74611;53.106;8.778;2023-12-20T12:16:17;100795.78;;;19.01;48.52
84413;BME280;74611;53.106;8.778;2023-12-20T12:18:44;100800.88;;;18.98;48.63
84413;BME280;74611;53.106;8.778;2023-12-20T12:21:09;100790.25;;;18.96;48.65
84413;BME280;74611;53.106;8.778;2023-12-20T12:23:35;100779.63;;;18.95;48.81
84413;BME280;74611;53.106;8.778;2023-12-20T12:26:04;100789.91;;;18.93;48.88
84413;BME280;74611;53.106;8.778;2023-12-20T12:28:29;100792.88;;;18.91;48.65
84413;BME280;74611;53.106;8.778;2023-12-20T12:31:00;100790.97;;;18.92;48.71
84413;BME280;74611;53.106;8.778;2023-12-20T12:33:26;100786.84;;;18.89;48.73
84413;BME280;74611;53.106;8.778;2023-12-20T12:35:51;100794.16;;;18.89;48.69
84413;BME280;74611;53.106;8.778;2023-12-20T12:38:20;100800.44;;;18.89;48.90
84413;BME280;74611;53.106;8.778;2023-12-20T12:40:46;100802.31;;;18.89;48.82
84413;BME280;74611;53.106;8.778;2023-12-20T12:43:11;100795.25;;;18.88;48.87
84413;BME280;74611;53.106;8.778;2023-12-20T12:45:38;100794.41;;;18.87;48.88
84413;BME280;74611;53.106;8.778;2023-12-20T12:48:04;100808.00;;;18.87;48.68
84413;BME280;74611;53.106;8.778;2023-12-20T12:50:30;100789.22;;;18.86;48.88
84413;BME280;74611;53.106;8.778;2023-12-20T12:52:56;100799.47;;;18.83;48.93
84413;BME280;74611;53.106;8.778;2023-12-20T12:55:21;100800.56;;;18.83;49.03